createdAt,value
2023-02-27T00:00:40.723Z,22.00
2023-02-27T00:15:46.456Z,19.10
2023-02-27T00:30:48.462Z,22.87
2023-02-27T00:45:50.286Z,29.07
2023-02-27T01:00:52.192Z,29.53
2023-02-27T01:15:54.374Z,31.00
2023-02-27T01:30:56.265Z,42.07
2023-02-27T01:45:59.733Z,31.20
2023-02-27T02:01:01.679Z,34.97
2023-02-27T02:16:32.890Z,56.00
2023-02-27T02:31:37.384Z,45.03
2023-02-27T02:47:02.080Z,66.23
2023-02-27T03:02:05.282Z,76.20
2023-02-27T03:17:15.050Z,63.97
2023-02-27T03:32:23.127Z,57.23
2023-02-27T03:47:25.193Z,51.93
2023-02-27T04:02:28.432Z,53.73
2023-02-27T04:17:33.749Z,43.33
2023-02-27T04:32:57.717Z,52.43
2023-02-27T04:48:05.818Z,47.70
2023-02-27T05:03:17.914Z,33.87
2023-02-27T05:18:22.503Z,37.07
2023-02-27T05:33:52.023Z,35.95
2023-02-27T05:49:16.018Z,27.60
2023-02-27T06:04:18.024Z,27.77
2023-02-27T06:19:20.229Z,29.73
2023-02-27T06:34:22.096Z,22.97
2023-02-27T06:49:23.933Z,28.50
2023-02-27T07:04:25.820Z,21.87
2023-02-27T07:19:28.070Z,29.83
2023-02-27T07:34:29.869Z,34.47
2023-02-27T07:49:31.709Z,39.03
2023-02-27T08:04:33.523Z,53.07
2023-02-27T08:19:36.179Z,33.80
2023-02-27T08:34:38.151Z,24.77
2023-02-27T08:49:40.116Z,19.20
2023-02-27T09:04:41.962Z,23.60
2023-02-27T09:19:44.351Z,24.57
2023-02-27T09:34:46.182Z,27.57
2023-02-27T09:50:03.801Z,31.97
2023-02-27T10:05:35.767Z,25.20
2023-02-27T10:20:43.971Z,23.97
2023-02-27T10:35:46.307Z,18.77
2023-02-27T10:51:01.275Z,15.43
2023-02-27T11:06:12.882Z,26.50
2023-02-27T11:21:30.677Z,13.20
2023-02-27T11:36:44.781Z,20.10
2023-02-27T11:52:05.673Z,21.07
2023-02-27T12:07:41.102Z,19.57
2023-02-27T12:22:47.752Z,23.93
2023-02-27T12:37:49.793Z,25.27
2023-02-27T12:53:27.369Z,21.93
2023-02-27T13:09:58.412Z,21.23
2023-02-27T13:25:05.899Z,37.53
2023-02-27T13:40:37.585Z,39.30
2023-02-27T13:55:40.209Z,27.30
2023-02-27T14:11:10.840Z,81.80
2023-02-27T14:26:20.863Z,29.70
2023-02-27T14:42:06.808Z,39.10
2023-02-27T14:57:20.586Z,35.67
2023-02-27T15:12:24.089Z,32.50
2023-02-27T15:27:28.568Z,33.33
2023-02-27T15:42:37.769Z,32.30
2023-02-27T15:57:40.923Z,41.10
2023-02-27T16:12:46.474Z,42.78
2023-02-27T16:27:50.972Z,54.03
2023-02-27T16:42:54.621Z,50.03
2023-02-27T16:57:56.462Z,44.37
2023-02-27T17:12:58.312Z,57.80
2023-02-27T17:28:00.745Z,42.97
2023-02-27T17:43:02.650Z,37.27
2023-02-27T17:58:05.307Z,32.23
2023-02-27T18:13:07.554Z,24.80
2023-02-27T18:28:11.478Z,32.77
2023-02-27T18:43:14.188Z,30.77
2023-02-27T18:58:16.350Z,27.00
2023-02-27T19:13:18.309Z,27.00
2023-02-27T19:28:20.228Z,21.50
2023-02-27T19:43:22.063Z,18.83
2023-02-27T19:58:23.874Z,15.73
2023-02-27T20:13:26.826Z,12.03
2023-02-27T20:28:29.026Z,10.80
2023-02-27T20:43:31.145Z,10.73
2023-02-27T20:58:34.198Z,8.60
2023-02-27T21:13:36.597Z,8.13
2023-02-27T21:28:43.355Z,6.77
2023-02-27T21:43:45.169Z,7.23
2023-02-27T21:58:46.976Z,5.87
2023-02-27T22:13:48.909Z,6.47
2023-02-27T22:28:58.035Z,4.10
2023-02-27T22:44:01.062Z,7.03
2023-02-27T22:59:03.756Z,3.57
2023-02-27T23:14:05.663Z,2.70
2023-02-27T23:29:08.253Z,4.27
2023-02-27T23:44:10.114Z,5.63
2023-02-27T23:59:11.917Z,8.10
